sensor_id;sensor_type;location;lat;lon;timestamp;P1;durP1;ratioP1;P2;durP2;ratioP2
55172;SDS011;41061;52.822;6.860;2023-07-16T00:00:03;5.18;;;2.00;;
55172;SDS011;41061;52.822;6.860;2023-07-16T00:02:30;6.13;;;2.17;;
55172;SDS011;41061;52.822;6.860;2023-07-16T00:04:56;6.82;;;2.03;;
55172;SDS011;41061;52.822;6.860;2023-07-16T00:07:22;6.45;;;1.88;;
55172;SDS011;41061;52.822;6.860;2023-07-16T00:09:48;7.50;;;2.13;;
55172;SDS011;41061;52.822;6.860;2023-07-16T00:12:14;6.32;;;2.00;;
55172;SDS011;41061;52.822;6.860;2023-07-16T00:14:40;9.10;;;1.98;;
55172;SDS011;41061;52.822;6.860;2023-07-16T00:17:06;3.75;;;2.10;;
55172;SDS011;41061;52.822;6.860;2023-07-16T00:19:32;7.78;;;2.50;;
55172;SDS011;41061;52.822;6.860;2023-07-16T00:21:58;6.38;;;2.45;;
55172;SDS011;41061;52.822;6.860;2023-07-16T00:24:24;5.20;;;2.17;;
55172;SDS011;41061;52.822;6.860;2023-07-16T00:26:51;6.10;;;2.25;;
55172;SDS011;41061;52.822;6.860;2023-07-16T00:29:17;7.05;;;2.17;;
55172;SDS011;41061;52.822;6.860;2023-07-16T00:31:43;5.85;;;2.40;;
55172;SDS011;41061;52.822;6.860;2023-07-16T00:34:09;7.78;;;2.50;;
55172;SDS011;41061;52.822;6.860;2023-07-16T00:36:37;8.75;;;2.08;;
55172;SDS011;41061;52.822;6.860;2023-07-16T00:39:03;6.80;;;2.17;;
55172;SDS011;41061;52.822;6.860;2023-07-16T00:41:29;10.73;;;2.17;;
55172;SDS011;41061;52.822;6.860;2023-07-16T00:43:55;8.93;;;2.55;;
55172;SDS011;41061;52.822;6.860;2023-07-16T00:46:22;4.97;;;2.58;;
55172;SDS011;41061;52.822;6.860;2023-07-16T00:48:48;7.03;;;2.00;;
55172;SDS011;41061;52.822;6.860;2023-07-16T00:51:14;11.25;;;2.30;;
55172;SDS011;41061;52.822;6.860;2023-07-16T00:53:41;5.00;;;2.50;;
55172;SDS011;41061;52.822;6.860;2023-07-16T00:56:08;6.00;;;2.42;;
55172;SDS011;41061;52.822;6.860;2023-07-16T00:58:34;6.78;;;2.30;;
55172;SDS011;41061;52.822;6.860;2023-07-16T01:01:01;6.82;;;1.92;;
55172;SDS011;41061;52.822;6.860;2023-07-16T01:03:27;6.85;;;2.25;;
55172;SDS011;41061;52.822;6.860;2023-07-16T01:08:27;5.70;;;1.90;;
55172;SDS011;41061;52.822;6.860;2023-07-16T01:10:57;5.63;;;2.20;;
55172;SDS011;41061;52.822;6.860;2023-07-16T01:13:23;10.43;;;2.55;;
55172;SDS011;41061;52.822;6.860;2023-07-16T01:15:50;10.38;;;2.03;;
55172;SDS011;41061;52.822;6.860;2023-07-16T01:18:16;9.30;;;2.38;;
55172;SDS011;41061;52.822;6.860;2023-07-16T01:20:42;8.02;;;2.20;;
55172;SDS011;41061;52.822;6.860;2023-07-16T01:31:07;6.03;;;2.30;;
55172;SDS011;41061;52.822;6.860;2023-07-16T01:33:34;5.28;;;2.38;;
55172;SDS011;41061;52.822;6.860;2023-07-16T01:36:01;13.70;;;3.30;;
55172;SDS011;41061;52.822;6.860;2023-07-16T01:38:28;8.20;;;2.40;;
55172;SDS011;41061;52.822;6.860;2023-07-16T01:40:54;7.63;;;2.72;;
55172;SDS011;41061;52.822;6.860;2023-07-16T01:43:20;9.30;;;3.60;;
55172;SDS011;41061;52.822;6.860;2023-07-16T01:45:46;12.52;;;2.60;;
55172;SDS011;41061;52.822;6.860;2023-07-16T01:48:29;7.55;;;2.55;;
55172;SDS011;41061;52.822;6.860;2023-07-16T01:50:55;5.93;;;2.83;;
55172;SDS011;41061;52.822;6.860;2023-07-16T01:53:22;9.50;;;2.72;;
55172;SDS011;41061;52.822;6.860;2023-07-16T01:55:48;4.60;;;1.85;;
55172;SDS011;41061;52.822;6.860;2023-07-16T01:58:14;8.73;;;2.28;;
55172;SDS011;41061;52.822;6.860;2023-07-16T02:00:40;7.85;;;2.67;;
55172;SDS011;41061;52.822;6.860;2023-07-16T02:03:06;6.18;;;2.63;;
55172;SDS011;41061;52.822;6.860;2023-07-16T02:05:32;7.53;;;2.83;;
55172;SDS011;41061;52.822;6.860;2023-07-16T02:07:58;8.95;;;3.15;;
55172;SDS011;41061;52.822;6.860;2023-07-16T02:10:24;9.25;;;2.88;;
55172;SDS011;41061;52.822;6.860;2023-07-16T02:12:50;7.18;;;2.85;;
55172;SDS011;41061;52.822;6.860;2023-07-16T02:15:17;6.15;;;2.83;;
55172;SDS011;41061;52.822;6.860;2023-07-16T02:17:43;8.07;;;2.67;;
55172;SDS011;41061;52.822;6.860;2023-07-16T02:20:09;6.97;;;3.10;;
55172;SDS011;41061;52.822;6.860;2023-07-16T02:22:36;8.38;;;2.88;;
55172;SDS011;41061;52.822;6.860;2023-07-16T02:25:02;8.88;;;3.17;;
55172;SDS011;41061;52.822;6.860;2023-07-16T02:27:28;4.25;;;2.25;;
55172;SDS011;41061;52.822;6.860;2023-07-16T02:29:54;7.05;;;2.67;;
55172;SDS011;41061;52.822;6.860;2023-07-16T02:32:20;7.35;;;3.40;;
55172;SDS011;41061;52.822;6.860;2023-07-16T02:34:47;10.80;;;3.08;;
55172;SDS011;41061;52.822;6.860;2023-07-16T02:37:13;7.80;;;3.17;;
55172;SDS011;41061;52.822;6.860;2023-07-16T02:39:40;9.95;;;3.35;;
55172;SDS011;41061;52.822;6.860;2023-07-16T02:42:07;6.35;;;2.70;;
55172;SDS011;41061;52.822;6.860;2023-07-16T02:44:33;8.43;;;3.05;;
55172;SDS011;41061;52.822;6.860;2023-07-16T02:47:03;4.65;;;2.67;;
55172;SDS011;41061;52.822;6.860;2023-07-16T02:49:29;9.90;;;2.80;;
55172;SDS011;41061;52.822;6.860;2023-07-16T02:51:55;10.10;;;2.55;;
55172;SDS011;41061;52.822;6.860;2023-07-16T02:54:21;7.78;;;2.50;;
55172;SDS011;41061;52.822;6.860;2023-07-16T02:56:48;9.20;;;2.83;;
55172;SDS011;41061;52.822;6.860;2023-07-16T02:59:14;9.32;;;2.85;;
55172;SDS011;41061;52.822;6.860;2023-07-16T03:01:40;8.90;;;2.80;;
55172;SDS011;41061;52.822;6.860;2023-07-16T03:04:06;10.30;;;3.10;;
55172;SDS011;41061;52.822;6.860;2023-07-16T03:06:32;7.50;;;3.15;;
55172;SDS011;41061;52.822;6.860;2023-07-16T03:08:58;8.65;;;3.63;;
55172;SDS011;41061;52.822;6.860;2023-07-16T03:11:24;7.63;;;3.30;;
55172;SDS011;41061;52.822;6.860;2023-07-16T03:13:50;11.57;;;3.70;;
55172;SDS011;41061;52.822;6.860;2023-07-16T03:16:16;9.15;;;3.60;;
55172;SDS011;41061;52.822;6.860;2023-07-16T03:18:43;16.08;;;3.92;;
55172;SDS011;41061;52.822;6.860;2023-07-16T03:21:10;6.82;;;3.30;;
55172;SDS011;41061;52.822;6.860;2023-07-16T03:23:36;10.32;;;3.33;;
55172;SDS011;41061;52.822;6.860;2023-07-16T03:26:02;8.93;;;3.08;;
55172;SDS011;41061;52.822;6.860;2023-07-16T03:28:29;9.93;;;3.67;;
55172;SDS011;41061;52.822;6.860;2023-07-16T03:30:55;7.50;;;3.20;;
55172;SDS011;41061;52.822;6.860;2023-07-16T03:33:21;9.82;;;3.20;;
55172;SDS011;41061;52.822;6.860;2023-07-16T03:35:48;15.05;;;3.72;;
55172;SDS011;41061;52.822;6.860;2023-07-16T03:38:14;11.15;;;3.05;;
55172;SDS011;41061;52.822;6.860;2023-07-16T03:40:45;8.70;;;2.88;;
55172;SDS011;41061;52.822;6.860;2023-07-16T03:43:12;6.68;;;2.63;;
55172;SDS011;41061;52.822;6.860;2023-07-16T03:45:38;8.68;;;2.53;;
55172;SDS011;41061;52.822;6.860;2023-07-16T03:48:04;10.95;;;3.25;;
55172;SDS011;41061;52.822;6.860;2023-07-16T03:50:30;12.32;;;3.33;;
55172;SDS011;41061;52.822;6.860;2023-07-16T03:52:56;14.52;;;2.85;;
55172;SDS011;41061;52.822;6.860;2023-07-16T03:55:22;6.97;;;2.65;;
55172;SDS011;41061;52.822;6.860;2023-07-16T03:57:49;7.22;;;2.97;;
55172;SDS011;41061;52.822;6.860;2023-07-16T04:00:15;7.45;;;3.75;;
55172;SDS011;41061;52.822;6.860;2023-07-16T04:02:41;8.20;;;3.65;;
55172;SDS011;41061;52.822;6.860;2023-07-16T04:05:07;7.47;;;2.60;;
55172;SDS011;41061;52.822;6.860;2023-07-16T04:07:33;9.48;;;3.63;;
55172;SDS011;41061;52.822;6.860;2023-07-16T04:09:59;10.27;;;3.50;;
55172;SDS011;41061;52.822;6.860;2023-07-16T04:12:25;11.32;;;3.30;;
55172;SDS011;41061;52.822;6.860;2023-07-16T04:14:56;8.98;;;3.40;;
55172;SDS011;41061;52.822;6.860;2023-07-16T04:17:22;10.07;;;3.70;;
55172;SDS011;41061;52.822;6.860;2023-07-16T04:19:48;8.05;;;3.05;;
55172;SDS011;41061;52.822;6.860;2023-07-16T04:22:14;13.48;;;3.78;;
55172;SDS011;41061;52.822;6.860;2023-07-16T04:24:40;10.30;;;3.67;;
55172;SDS011;41061;52.822;6.860;2023-07-16T04:27:06;13.30;;;3.70;;
55172;SDS011;41061;52.822;6.860;2023-07-16T04:29:32;10.30;;;3.30;;
55172;SDS011;41061;52.822;6.860;2023-07-16T04:31:58;6.10;;;3.10;;
55172;SDS011;41061;52.822;6.860;2023-07-16T04:34:25;7.97;;;3.53;;
55172;SDS011;41061;52.822;6.860;2023-07-16T04:36:51;11.00;;;3.10;;
55172;SDS011;41061;52.822;6.860;2023-07-16T04:39:17;14.50;;;3.72;;
55172;SDS011;41061;52.822;6.860;2023-07-16T04:41:43;15.68;;;3.50;;
55172;SDS011;41061;52.822;6.860;2023-07-16T04:44:09;6.90;;;3.40;;
55172;SDS011;41061;52.822;6.860;2023-07-16T04:46:35;10.10;;;3.67;;
55172;SDS011;41061;52.822;6.860;2023-07-16T04:49:01;8.60;;;3.05;;
55172;SDS011;41061;52.822;6.860;2023-07-16T04:51:27;13.27;;;3.30;;
55172;SDS011;41061;52.822;6.860;2023-07-16T04:53:54;8.68;;;3.38;;
55172;SDS011;41061;52.822;6.860;2023-07-16T04:56:20;10.90;;;2.92;;
55172;SDS011;41061;52.822;6.860;2023-07-16T04:58:46;9.10;;;3.15;;
55172;SDS011;41061;52.822;6.860;2023-07-16T05:01:12;11.63;;;3.10;;
55172;SDS011;41061;52.822;6.860;2023-07-16T05:03:38;7.88;;;2.90;;
55172;SDS011;41061;52.822;6.860;2023-07-16T05:06:04;12.25;;;3.17;;
55172;SDS011;41061;52.822;6.860;2023-07-16T05:08:30;10.10;;;2.97;;
55172;SDS011;41061;52.822;6.860;2023-07-16T05:10:57;8.43;;;2.85;;
55172;SDS011;41061;52.822;6.860;2023-07-16T05:13:24;6.45;;;2.80;;
55172;SDS011;41061;52.822;6.860;2023-07-16T05:15:50;6.63;;;2.72;;
55172;SDS011;41061;52.822;6.860;2023-07-16T05:18:16;8.85;;;3.00;;
55172;SDS011;41061;52.822;6.860;2023-07-16T05:20:42;11.20;;;2.80;;
55172;SDS011;41061;52.822;6.860;2023-07-16T05:23:09;7.32;;;2.88;;
55172;SDS011;41061;52.822;6.860;2023-07-16T05:25:35;10.93;;;3.22;;
55172;SDS011;41061;52.822;6.860;2023-07-16T05:28:02;11.10;;;3.58;;
55172;SDS011;41061;52.822;6.860;2023-07-16T05:30:28;13.18;;;3.47;;
55172;SDS011;41061;52.822;6.860;2023-07-16T05:32:54;9.00;;;3.13;;
55172;SDS011;41061;52.822;6.860;2023-07-16T05:35:20;10.02;;;3.35;;
55172;SDS011;41061;52.822;6.860;2023-07-16T05:37:46;8.77;;;3.00;;
55172;SDS011;41061;52.822;6.860;2023-07-16T05:40:12;12.52;;;3.08;;
55172;SDS011;41061;52.822;6.860;2023-07-16T05:42:38;7.65;;;3.17;;
55172;SDS011;41061;52.822;6.860;2023-07-16T05:45:05;9.32;;;3.13;;
55172;SDS011;41061;52.822;6.860;2023-07-16T05:47:32;8.25;;;3.25;;
55172;SDS011;41061;52.822;6.860;2023-07-16T05:49:58;9.65;;;3.22;;
55172;SDS011;41061;52.822;6.860;2023-07-16T05:52:24;9.23;;;3.08;;
55172;SDS011;41061;52.822;6.860;2023-07-16T05:54:50;9.75;;;3.20;;
55172;SDS011;41061;52.822;6.860;2023-07-16T05:57:16;10.30;;;3.58;;
55172;SDS011;41061;52.822;6.860;2023-07-16T05:59:42;10.35;;;3.30;;
55172;SDS011;41061;52.822;6.860;2023-07-16T06:02:08;10.65;;;3.45;;
55172;SDS011;41061;52.822;6.860;2023-07-16T06:04:34;11.10;;;3.53;;
55172;SDS011;41061;52.822;6.860;2023-07-16T06:07:02;8.68;;;4.75;;
55172;SDS011;41061;52.822;6.860;2023-07-16T06:09:28;11.25;;;3.67;;
55172;SDS011;41061;52.822;6.860;2023-07-16T06:11:54;8.25;;;3.85;;
55172;SDS011;41061;52.822;6.860;2023-07-16T06:14:20;8.43;;;3.58;;
55172;SDS011;41061;52.822;6.860;2023-07-16T06:16:47;8.25;;;3.25;;
55172;SDS011;41061;52.822;6.860;2023-07-16T06:19:13;6.55;;;3.15;;
55172;SDS011;41061;52.822;6.860;2023-07-16T06:21:39;11.48;;;3.67;;
55172;SDS011;41061;52.822;6.860;2023-07-16T06:24:05;11.48;;;4.07;;
55172;SDS011;41061;52.822;6.860;2023-07-16T06:26:31;9.27;;;3.38;;
55172;SDS011;41061;52.822;6.860;2023-07-16T06:28:57;6.03;;;3.20;;
55172;SDS011;41061;52.822;6.860;2023-07-16T06:31:23;7.35;;;3.40;;
55172;SDS011;41061;52.822;6.860;2023-07-16T06:33:49;11.07;;;3.50;;
55172;SDS011;41061;52.822;6.860;2023-07-16T06:36:16;10.68;;;3.30;;
55172;SDS011;41061;52.822;6.860;2023-07-16T06:38:42;9.63;;;3.60;;
55172;SDS011;41061;52.822;6.860;2023-07-16T06:41:08;10.25;;;3.75;;
55172;SDS011;41061;52.822;6.860;2023-07-16T06:43:34;8.65;;;3.35;;
55172;SDS011;41061;52.822;6.860;2023-07-16T06:46:00;8.23;;;3.20;;
55172;SDS011;41061;52.822;6.860;2023-07-16T06:48:26;8.15;;;3.03;;
55172;SDS011;41061;52.822;6.860;2023-07-16T06:50:52;10.68;;;3.38;;
55172;SDS011;41061;52.822;6.860;2023-07-16T06:53:18;9.23;;;3.08;;
55172;SDS011;41061;52.822;6.860;2023-07-16T06:55:46;14.75;;;3.97;;
55172;SDS011;41061;52.822;6.860;2023-07-16T06:58:13;8.70;;;3.45;;
55172;SDS011;41061;52.822;6.860;2023-07-16T07:00:39;8.07;;;3.03;;
55172;SDS011;41061;52.822;6.860;2023-07-16T07:03:06;8.57;;;3.47;;
55172;SDS011;41061;52.822;6.860;2023-07-16T07:05:32;6.40;;;3.38;;
55172;SDS011;41061;52.822;6.860;2023-07-16T07:08:01;10.20;;;3.42;;
55172;SDS011;41061;52.822;6.860;2023-07-16T07:10:27;9.00;;;3.63;;
55172;SDS011;41061;52.822;6.860;2023-07-16T07:12:53;10.07;;;4.03;;
55172;SDS011;41061;52.822;6.860;2023-07-16T07:15:19;9.27;;;3.33;;
55172;SDS011;41061;52.822;6.860;2023-07-16T07:17:46;6.88;;;3.95;;
55172;SDS011;41061;52.822;6.860;2023-07-16T07:20:13;7.47;;;3.97;;
55172;SDS011;41061;52.822;6.860;2023-07-16T07:22:39;8.48;;;3.80;;
55172;SDS011;41061;52.822;6.860;2023-07-16T07:25:06;11.15;;;3.70;;
55172;SDS011;41061;52.822;6.860;2023-07-16T07:27:32;10.10;;;4.10;;
55172;SDS011;41061;52.822;6.860;2023-07-16T07:29:58;9.35;;;3.60;;
55172;SDS011;41061;52.822;6.860;2023-07-16T07:32:24;11.68;;;3.60;;
55172;SDS011;41061;52.822;6.860;2023-07-16T07:34:50;6.72;;;3.38;;
55172;SDS011;41061;52.822;6.860;2023-07-16T07:37:17;7.07;;;3.63;;
55172;SDS011;41061;52.822;6.860;2023-07-16T07:39:43;10.93;;;3.13;;
55172;SDS011;41061;52.822;6.860;2023-07-16T07:42:13;7.70;;;3.25;;
55172;SDS011;41061;52.822;6.860;2023-07-16T07:44:39;6.82;;;3.50;;
55172;SDS011;41061;52.822;6.860;2023-07-16T07:47:05;8.05;;;3.53;;
55172;SDS011;41061;52.822;6.860;2023-07-16T07:49:33;8.98;;;4.00;;
55172;SDS011;41061;52.822;6.860;2023-07-16T07:52:00;7.85;;;3.33;;
55172;SDS011;41061;52.822;6.860;2023-07-16T07:54:26;8.65;;;3.50;;
55172;SDS011;41061;52.822;6.860;2023-07-16T07:56:52;9.95;;;3.72;;
55172;SDS011;41061;52.822;6.860;2023-07-16T07:59:18;9.68;;;3.83;;
55172;SDS011;41061;52.822;6.860;2023-07-16T08:01:44;6.85;;;3.10;;
55172;SDS011;41061;52.822;6.860;2023-07-16T08:04:10;8.80;;;3.25;;
55172;SDS011;41061;52.822;6.860;2023-07-16T08:06:36;7.47;;;3.70;;
55172;SDS011;41061;52.822;6.860;2023-07-16T08:09:02;6.95;;;3.25;;
55172;SDS011;41061;52.822;6.860;2023-07-16T08:11:28;8.32;;;3.20;;
55172;SDS011;41061;52.822;6.860;2023-07-16T08:13:54;5.82;;;3.10;;
55172;SDS011;41061;52.822;6.860;2023-07-16T08:16:20;7.80;;;3.33;;
55172;SDS011;41061;52.822;6.860;2023-07-16T08:18:48;8.10;;;3.10;;
55172;SDS011;41061;52.822;6.860;2023-07-16T08:21:15;6.28;;;2.85;;
55172;SDS011;41061;52.822;6.860;2023-07-16T08:23:45;6.95;;;3.00;;
55172;SDS011;41061;52.822;6.860;2023-07-16T08:26:11;11.35;;;3.60;;
55172;SDS011;41061;52.822;6.860;2023-07-16T08:28:38;7.60;;;3.35;;
55172;SDS011;41061;52.822;6.860;2023-07-16T08:31:04;9.07;;;3.60;;
55172;SDS011;41061;52.822;6.860;2023-07-16T08:33:30;8.18;;;3.47;;
55172;SDS011;41061;52.822;6.860;2023-07-16T08:35:56;10.20;;;3.53;;
55172;SDS011;41061;52.822;6.860;2023-07-16T08:38:22;7.28;;;3.22;;
55172;SDS011;41061;52.822;6.860;2023-07-16T08:40:48;8.07;;;3.38;;
55172;SDS011;41061;52.822;6.860;2023-07-16T08:43:14;9.15;;;3.10;;
55172;SDS011;41061;52.822;6.860;2023-07-16T08:45:42;11.18;;;3.30;;
55172;SDS011;41061;52.822;6.860;2023-07-16T08:48:11;7.65;;;3.63;;
55172;SDS011;41061;52.822;6.860;2023-07-16T08:50:37;10.35;;;3.67;;
55172;SDS011;41061;52.822;6.860;2023-07-16T08:53:04;9.30;;;3.40;;
55172;SDS011;41061;52.822;6.860;2023-07-16T08:55:30;10.90;;;3.38;;
55172;SDS011;41061;52.822;6.860;2023-07-16T08:57:57;8.75;;;3.63;;
55172;SDS011;41061;52.822;6.860;2023-07-16T09:00:23;7.78;;;3.53;;
55172;SDS011;41061;52.822;6.860;2023-07-16T09:02:51;9.55;;;4.20;;
55172;SDS011;41061;52.822;6.860;2023-07-16T09:05:20;10.32;;;3.78;;
55172;SDS011;41061;52.822;6.860;2023-07-16T09:07:46;7.60;;;3.60;;
55172;SDS011;41061;52.822;6.860;2023-07-16T09:10:12;8.43;;;3.78;;
55172;SDS011;41061;52.822;6.860;2023-07-16T09:12:45;6.95;;;3.03;;
55172;SDS011;41061;52.822;6.860;2023-07-16T09:15:13;10.88;;;3.58;;
55172;SDS011;41061;52.822;6.860;2023-07-16T09:17:39;8.10;;;4.20;;
55172;SDS011;41061;52.822;6.860;2023-07-16T09:20:06;10.90;;;3.42;;
55172;SDS011;41061;52.822;6.860;2023-07-16T09:22:32;6.72;;;4.10;;
55172;SDS011;41061;52.822;6.860;2023-07-16T09:25:02;6.78;;;3.85;;
55172;SDS011;41061;52.822;6.860;2023-07-16T09:27:28;7.47;;;3.92;;
55172;SDS011;41061;52.822;6.860;2023-07-16T09:29:54;11.43;;;3.70;;
55172;SDS011;41061;52.822;6.860;2023-07-16T09:32:21;9.93;;;3.65;;
55172;SDS011;41061;52.822;6.860;2023-07-16T09:34:50;5.90;;;3.30;;
55172;SDS011;41061;52.822;6.860;2023-07-16T09:37:17;8.15;;;3.47;;
55172;SDS011;41061;52.822;6.860;2023-07-16T09:39:45;7.45;;;3.38;;
55172;SDS011;41061;52.822;6.860;2023-07-16T09:42:11;9.50;;;3.20;;
55172;SDS011;41061;52.822;6.860;2023-07-16T09:44:38;6.88;;;3.20;;
55172;SDS011;41061;52.822;6.860;2023-07-16T09:47:06;9.10;;;4.35;;
55172;SDS011;41061;52.822;6.860;2023-07-16T09:49:32;8.50;;;3.88;;
55172;SDS011;41061;52.822;6.860;2023-07-16T09:51:58;7.43;;;3.83;;
55172;SDS011;41061;52.822;6.860;2023-07-16T09:54:27;10.32;;;3.63;;
55172;SDS011;41061;52.822;6.860;2023-07-16T09:56:57;8.13;;;3.58;;
55172;SDS011;41061;52.822;6.860;2023-07-16T09:59:25;7.95;;;3.90;;
55172;SDS011;41061;52.822;6.860;2023-07-16T10:01:53;8.15;;;3.88;;
55172;SDS011;41061;52.822;6.860;2023-07-16T10:04:20;7.63;;;3.97;;
55172;SDS011;41061;52.822;6.860;2023-07-16T10:06:57;7.00;;;4.00;;
55172;SDS011;41061;52.822;6.860;2023-07-16T10:17:07;6.88;;;3.47;;
55172;SDS011;41061;52.822;6.860;2023-07-16T10:19:46;6.38;;;3.47;;
55172;SDS011;41061;52.822;6.860;2023-07-16T10:22:12;8.85;;;3.63;;
55172;SDS011;41061;52.822;6.860;2023-07-16T10:24:41;7.18;;;3.70;;
55172;SDS011;41061;52.822;6.860;2023-07-16T10:27:07;6.75;;;3.80;;
55172;SDS011;41061;52.822;6.860;2023-07-16T10:29:33;8.52;;;3.72;;
55172;SDS011;41061;52.822;6.860;2023-07-16T10:32:01;7.38;;;3.42;;
55172;SDS011;41061;52.822;6.860;2023-07-16T10:34:28;5.60;;;3.75;;
55172;SDS011;41061;52.822;6.860;2023-07-16T10:36:54;9.25;;;4.00;;
55172;SDS011;41061;52.822;6.860;2023-07-16T10:39:20;6.00;;;3.65;;
55172;SDS011;41061;52.822;6.860;2023-07-16T10:41:48;7.82;;;3.70;;
55172;SDS011;41061;52.822;6.860;2023-07-16T10:44:15;7.75;;;3.85;;
55172;SDS011;41061;52.822;6.860;2023-07-16T10:46:41;10.10;;;4.10;;
55172;SDS011;41061;52.822;6.860;2023-07-16T10:49:07;9.52;;;4.03;;
55172;SDS011;41061;52.822;6.860;2023-07-16T10:51:33;10.05;;;4.47;;
55172;SDS011;41061;52.822;6.860;2023-07-16T10:54:01;8.70;;;4.28;;
55172;SDS011;41061;52.822;6.860;2023-07-16T10:56:33;7.43;;;3.38;;
55172;SDS011;41061;52.822;6.860;2023-07-16T10:58:59;9.25;;;3.60;;
55172;SDS011;41061;52.822;6.860;2023-07-16T11:01:25;8.95;;;3.50;;
55172;SDS011;41061;52.822;6.860;2023-07-16T11:03:59;6.28;;;3.00;;
55172;SDS011;41061;52.822;6.860;2023-07-16T11:06:26;5.43;;;3.15;;
55172;SDS011;41061;52.822;6.860;2023-07-16T11:08:52;6.07;;;2.70;;
55172;SDS011;41061;52.822;6.860;2023-07-16T11:11:27;7.63;;;3.20;;
55172;SDS011;41061;52.822;6.860;2023-07-16T11:13:54;4.28;;;2.80;;
55172;SDS011;41061;52.822;6.860;2023-07-16T11:16:20;10.30;;;3.03;;
55172;SDS011;41061;52.822;6.860;2023-07-16T11:18:46;7.43;;;4.00;;
55172;SDS011;41061;52.822;6.860;2023-07-16T11:21:13;7.50;;;3.03;;
55172;SDS011;41061;52.822;6.860;2023-07-16T11:23:39;6.97;;;3.25;;
55172;SDS011;41061;52.822;6.860;2023-07-16T11:26:05;8.65;;;3.60;;
55172;SDS011;41061;52.822;6.860;2023-07-16T11:28:41;8.05;;;3.42;;
55172;SDS011;41061;52.822;6.860;2023-07-16T11:31:14;8.48;;;3.67;;
55172;SDS011;41061;52.822;6.860;2023-07-16T11:33:46;8.57;;;3.22;;
55172;SDS011;41061;52.822;6.860;2023-07-16T11:36:13;8.30;;;4.47;;
55172;SDS011;41061;52.822;6.860;2023-07-16T11:38:39;7.30;;;3.63;;
55172;SDS011;41061;52.822;6.860;2023-07-16T11:41:05;11.20;;;4.10;;
55172;SDS011;41061;52.822;6.860;2023-07-16T11:43:34;6.72;;;3.88;;
55172;SDS011;41061;52.822;6.860;2023-07-16T11:46:01;6.88;;;3.60;;
55172;SDS011;41061;52.822;6.860;2023-07-16T11:48:27;8.60;;;3.67;;
55172;SDS011;41061;52.822;6.860;2023-07-16T11:50:53;6.88;;;3.38;;
55172;SDS011;41061;52.822;6.860;2023-07-16T11:53:20;8.48;;;3.80;;
55172;SDS011;41061;52.822;6.860;2023-07-16T11:55:46;6.90;;;3.50;;
55172;SDS011;41061;52.822;6.860;2023-07-16T11:58:12;7.47;;;3.55;;
55172;SDS011;41061;52.822;6.860;2023-07-16T12:00:38;6.20;;;3.35;;
55172;SDS011;41061;52.822;6.860;2023-07-16T12:03:04;7.53;;;3.65;;
55172;SDS011;41061;52.822;6.860;2023-07-16T12:05:30;8.10;;;3.42;;
55172;SDS011;41061;52.822;6.860;2023-07-16T12:07:56;7.63;;;3.05;;
55172;SDS011;41061;52.822;6.860;2023-07-16T12:10:22;7.00;;;3.08;;
55172;SDS011;41061;52.822;6.860;2023-07-16T12:12:48;5.68;;;3.28;;
55172;SDS011;41061;52.822;6.860;2023-07-16T12:15:14;4.55;;;3.08;;
55172;SDS011;41061;52.822;6.860;2023-07-16T12:17:41;7.72;;;3.50;;
55172;SDS011;41061;52.822;6.860;2023-07-16T12:20:07;5.82;;;3.25;;
55172;SDS011;41061;52.822;6.860;2023-07-16T12:22:33;10.07;;;3.50;;
55172;SDS011;41061;52.822;6.860;2023-07-16T12:25:01;7.15;;;4.22;;
55172;SDS011;41061;52.822;6.860;2023-07-16T12:27:27;9.75;;;4.03;;
55172;SDS011;41061;52.822;6.860;2023-07-16T12:29:53;7.18;;;3.50;;
55172;SDS011;41061;52.822;6.860;2023-07-16T12:32:19;9.75;;;3.85;;
55172;SDS011;41061;52.822;6.860;2023-07-16T12:34:46;10.18;;;3.80;;
55172;SDS011;41061;52.822;6.860;2023-07-16T12:37:12;7.68;;;3.53;;
55172;SDS011;41061;52.822;6.860;2023-07-16T12:39:38;7.20;;;3.53;;
55172;SDS011;41061;52.822;6.860;2023-07-16T12:42:04;5.03;;;3.33;;
55172;SDS011;41061;52.822;6.860;2023-07-16T12:44:30;6.90;;;3.13;;
55172;SDS011;41061;52.822;6.860;2023-07-16T12:46:56;10.95;;;3.60;;
55172;SDS011;41061;52.822;6.860;2023-07-16T12:49:22;5.97;;;3.47;;
55172;SDS011;41061;52.822;6.860;2023-07-16T12:51:48;6.53;;;3.28;;
55172;SDS011;41061;52.822;6.860;2023-07-16T12:54:14;9.35;;;3.45;;
55172;SDS011;41061;52.822;6.860;2023-07-16T12:56:40;10.77;;;4.65;;
55172;SDS011;41061;52.822;6.860;2023-07-16T12:59:07;7.03;;;3.38;;
55172;SDS011;41061;52.822;6.860;2023-07-16T13:01:33;5.70;;;2.83;;
55172;SDS011;41061;52.822;6.860;2023-07-16T13:03:59;6.93;;;3.65;;
55172;SDS011;41061;52.822;6.860;2023-07-16T13:06:25;8.93;;;4.15;;
55172;SDS011;41061;52.822;6.860;2023-07-16T13:08:51;10.88;;;3.80;;
55172;SDS011;41061;52.822;6.860;2023-07-16T13:11:17;7.65;;;3.72;;
55172;SDS011;41061;52.822;6.860;2023-07-16T13:13:43;9.70;;;3.53;;
55172;SDS011;41061;52.822;6.860;2023-07-16T13:16:09;7.22;;;3.65;;
55172;SDS011;41061;52.822;6.860;2023-07-16T13:18:35;6.30;;;4.10;;
55172;SDS011;41061;52.822;6.860;2023-07-16T13:21:01;6.13;;;3.45;;
55172;SDS011;41061;52.822;6.860;2023-07-16T13:23:28;10.38;;;3.53;;
55172;SDS011;41061;52.822;6.860;2023-07-16T13:25:54;7.60;;;3.40;;
55172;SDS011;41061;52.822;6.860;2023-07-16T13:28:21;4.10;;;2.88;;
55172;SDS011;41061;52.822;6.860;2023-07-16T13:30:48;10.07;;;3.67;;
55172;SDS011;41061;52.822;6.860;2023-07-16T13:33:15;7.10;;;3.28;;
55172;SDS011;41061;52.822;6.860;2023-07-16T13:35:41;5.50;;;3.35;;
55172;SDS011;41061;52.822;6.860;2023-07-16T13:38:07;6.45;;;3.63;;
55172;SDS011;41061;52.822;6.860;2023-07-16T13:40:33;8.48;;;3.40;;
55172;SDS011;41061;52.822;6.860;2023-07-16T13:42:59;7.55;;;3.10;;
55172;SDS011;41061;52.822;6.860;2023-07-16T13:45:25;4.70;;;3.20;;
55172;SDS011;41061;52.822;6.860;2023-07-16T13:47:51;9.05;;;3.22;;
55172;SDS011;41061;52.822;6.860;2023-07-16T13:50:19;5.65;;;2.88;;
55172;SDS011;41061;52.822;6.860;2023-07-16T13:52:45;8.48;;;2.80;;
55172;SDS011;41061;52.822;6.860;2023-07-16T13:55:11;4.32;;;2.78;;
55172;SDS011;41061;52.822;6.860;2023-07-16T13:57:37;7.47;;;2.95;;
55172;SDS011;41061;52.822;6.860;2023-07-16T14:00:04;5.05;;;2.42;;
55172;SDS011;41061;52.822;6.860;2023-07-16T14:02:30;8.57;;;3.10;;
55172;SDS011;41061;52.822;6.860;2023-07-16T14:04:56;9.07;;;3.17;;
55172;SDS011;41061;52.822;6.860;2023-07-16T14:07:22;4.15;;;2.85;;
55172;SDS011;41061;52.822;6.860;2023-07-16T14:09:48;5.22;;;2.85;;
55172;SDS011;41061;52.822;6.860;2023-07-16T14:12:15;7.90;;;2.90;;
55172;SDS011;41061;52.822;6.860;2023-07-16T14:14:41;5.97;;;2.90;;
55172;SDS011;41061;52.822;6.860;2023-07-16T14:17:07;7.38;;;2.53;;
55172;SDS011;41061;52.822;6.860;2023-07-16T14:19:33;4.18;;;2.10;;
55172;SDS011;41061;52.822;6.860;2023-07-16T14:21:59;5.43;;;1.90;;
55172;SDS011;41061;52.822;6.860;2023-07-16T14:24:26;6.57;;;1.95;;
55172;SDS011;41061;52.822;6.860;2023-07-16T14:26:52;7.55;;;2.40;;
55172;SDS011;41061;52.822;6.860;2023-07-16T14:29:18;8.93;;;2.22;;
55172;SDS011;41061;52.822;6.860;2023-07-16T14:31:44;3.47;;;2.13;;
55172;SDS011;41061;52.822;6.860;2023-07-16T14:34:10;4.75;;;2.63;;
55172;SDS011;41061;52.822;6.860;2023-07-16T14:36:36;9.77;;;2.80;;
55172;SDS011;41061;52.822;6.860;2023-07-16T14:39:02;5.00;;;2.30;;
55172;SDS011;41061;52.822;6.860;2023-07-16T14:41:29;5.65;;;2.58;;
55172;SDS011;41061;52.822;6.860;2023-07-16T14:43:55;6.20;;;2.83;;
55172;SDS011;41061;52.822;6.860;2023-07-16T14:46:21;5.72;;;2.67;;
55172;SDS011;41061;52.822;6.860;2023-07-16T14:48:47;6.32;;;2.67;;
55172;SDS011;41061;52.822;6.860;2023-07-16T14:51:13;7.35;;;3.58;;
55172;SDS011;41061;52.822;6.860;2023-07-16T14:53:39;10.57;;;2.85;;
55172;SDS011;41061;52.822;6.860;2023-07-16T14:56:05;7.65;;;3.00;;
55172;SDS011;41061;52.822;6.860;2023-07-16T14:58:32;6.00;;;2.80;;